Terminal Aerodrome Forecast
Issued by NWS

Home | Current Version | Previous Version | Text Only | Print | Product List | Glossary On
Versions: 1 2 3 4 5 6 7 8 9 10 11 12 13 14 15
000
FTUS46 KSGX 290602 AAA
TAFCRQ
TAF AMD
KCRQ 290602Z 2906/3006 VRB03KT P6SM OVC008
     FM291200 VRB03KT 5SM BR OVC006
     FM291600 VRB04KT 5SM HZ BKN009
     FM291800 24008KT P6SM FEW015
     FM300100 VRB04KT P6SM BKN008=

USA.gov is the U.S. government's official web portal to all federal, state and local government web resources and services.